Time;durP1;ratioP1;P1;durP2;ratioP2;P2;SDS_P1;SDS_P2;PMS_P1;PMS_P2;Temp;Humidity;BMP_temperature;BMP_pressure;BME280_temperature;BME280_humidity;BME280_pressure;Samples;Min_cycle;Max_cycle;Signal;HPM_P1;HPM_P2
2022/08/16 00:00:14;;;;;;;17.27;11.18;;;;;;;19.91;68.11;99488.13;10406542;28;20045;-80
2022/08/16 00:05:26;;;;;;;15.57;11.30;;;;;;;19.88;67.90;99486.69;10409329;28;20450;-80
2022/08/16 00:10:37;;;;;;;11.73;10.55;;;;;;;19.85;68.17;99478.91;10406461;28;20092;-79
2022/08/16 00:15:44;;;;;;;14.85;11.60;;;;;;;19.84;68.16;99476.41;10409401;28;20038;-77
2022/08/16 00:20:55;;;;;;;14.35;11.73;;;;;;;19.79;68.03;99479.75;10407896;28;20121;-79
2022/08/16 00:25:58;;;;;;;19.60;12.18;;;;;;;19.66;67.92;99482.44;10407206;28;20052;-79
2022/08/16 00:31:21;;;;;;;15.75;12.88;;;;;;;19.53;68.54;99479.63;10393942;28;20045;-80
2022/08/16 00:36:28;;;;;;;14.50;11.32;;;;;;;19.49;68.09;99476.50;10400374;28;20053;-80
2022/08/16 00:41:34;;;;;;;15.30;12.43;;;;;;;19.48;68.32;99484.88;10381931;28;20049;-79
2022/08/16 00:46:46;;;;;;;16.27;12.13;;;;;;;19.49;67.71;99481.94;10398877;28;20042;-80
2022/08/16 00:52:06;;;;;;;15.65;11.02;;;;;;;19.47;67.75;99489.47;10415218;28;20053;-77
2022/08/16 00:57:29;;;;;;;12.13;10.88;;;;;;;19.52;67.57;99486.13;10423123;28;20064;-80
2022/08/16 01:02:52;;;;;;;14.45;11.48;;;;;;;19.54;67.54;99493.06;10409606;28;20050;-80
2022/08/16 01:07:57;;;;;;;13.13;11.57;;;;;;;19.46;67.29;99491.34;10403893;28;20049;-79
2022/08/16 01:13:06;;;;;;;17.02;12.43;;;;;;;19.32;67.24;99486.06;10406136;28;20054;-79
2022/08/16 01:18:14;;;;;;;12.68;11.35;;;;;;;19.23;67.42;99499.84;10402649;28;20053;-80
2022/08/16 01:23:48;;;;;;;15.18;11.35;;;;;;;19.13;67.98;99502.09;10415520;28;20037;-81
2022/08/16 01:29:08;;;;;;;16.50;12.40;;;;;;;19.04;68.32;99507.94;10390465;28;20046;-80
2022/08/16 01:34:14;;;;;;;17.08;14.48;;;;;;;18.97;69.25;99507.88;10386817;28;20061;-80
2022/08/16 01:39:31;;;;;;;18.00;13.73;;;;;;;18.93;69.19;99504.72;10390430;28;20073;-79
2022/08/16 01:44:38;;;;;;;14.48;13.07;;;;;;;18.97;69.29;99505.97;10390396;28;20050;-80
2022/08/16 01:49:43;;;;;;;14.55;12.63;;;;;;;18.99;69.15;99497.63;10398030;28;20502;-80
2022/08/16 01:55:08;;;;;;;15.88;12.80;;;;;;;18.97;69.38;99514.16;10397339;28;20541;-79
2022/08/16 02:00:15;;;;;;;21.00;14.23;;;;;;;18.85;69.50;99510.31;10403469;28;20042;-80
2022/08/16 02:05:21;;;;;;;19.05;14.65;;;;;;;18.82;69.87;99509.88;10379671;28;20101;-80
2022/08/16 02:10:27;;;;;;;19.63;14.85;;;;;;;18.90;70.13;99520.63;10404172;28;20136;-80
2022/08/16 02:15:33;;;;;;;17.55;14.40;;;;;;;18.91;69.99;99514.13;10392665;28;20050;-78
2022/08/16 02:20:51;;;;;;;19.98;14.52;;;;;;;18.89;70.16;99508.88;10414346;28;20052;-79
2022/08/16 02:25:57;;;;;;;19.33;15.23;;;;;;;18.88;69.86;99514.53;10396507;28;20048;-81
2022/08/16 02:31:04;;;;;;;15.57;13.57;;;;;;;18.90;69.78;99509.72;10386425;28;20049;-79
2022/08/16 02:36:08;;;;;;;15.50;13.55;;;;;;;18.97;69.44;99500.53;10426904;28;20037;-79
2022/08/16 02:41:17;;;;;;;15.50;13.60;;;;;;;19.01;69.08;99509.16;10383485;28;20050;-80
2022/08/16 02:46:21;;;;;;;17.75;12.40;;;;;;;19.03;69.11;99507.06;10408919;28;20045;-78
2022/08/16 02:51:37;;;;;;;13.98;12.40;;;;;;;19.15;68.89;99515.53;10400301;28;20057;-78
2022/08/16 02:56:45;;;;;;;16.45;12.15;;;;;;;19.20;68.35;99516.59;10386746;28;20072;-80
2022/08/16 03:01:50;;;;;;;11.57;10.25;;;;;;;19.13;68.30;99513.00;10433164;28;20053;-80
2022/08/16 03:06:59;;;;;;;14.65;10.50;;;;;;;19.15;68.79;99516.34;10393462;28;20069;-80
2022/08/16 03:12:35;;;;;;;17.73;13.30;;;;;;;19.14;68.82;99514.69;10407460;28;20056;-80
2022/08/16 03:17:41;;;;;;;16.90;12.45;;;;;;;19.06;69.07;99503.97;10384955;28;20495;-79
2022/08/16 03:22:56;;;;;;;13.55;12.13;;;;;;;19.07;68.69;99504.81;10383625;28;20105;-79
2022/08/16 03:28:01;;;;;;;14.82;12.88;;;;;;;19.08;68.66;99510.03;10378732;28;20049;-78
2022/08/16 03:33:10;;;;;;;14.30;12.40;;;;;;;19.08;68.36;99501.03;10394797;28;20129;-79
2022/08/16 03:38:22;;;;;;;15.93;12.30;;;;;;;19.02;68.50;99505.41;10360881;28;20073;-79
2022/08/16 03:43:41;;;;;;;13.10;10.38;;;;;;;19.06;68.38;99498.53;10375156;28;20053;-80
2022/08/16 03:48:56;;;;;;;14.40;9.73;;;;;;;19.08;68.55;99506.47;10390180;28;20133;-80
2022/08/16 03:53:59;;;;;;;12.75;11.50;;;;;;;19.04;68.64;99510.66;10391730;28;20149;-80
2022/08/16 03:59:05;;;;;;;14.27;12.52;;;;;;;18.95;69.04;99515.38;10383529;28;20133;-81
2022/08/16 04:04:17;;;;;;;11.80;10.60;;;;;;;18.88;68.76;99509.91;10430411;28;20392;-80
2022/08/16 04:09:36;;;;;;;18.48;11.55;;;;;;;18.72;68.86;99511.03;10405195;28;20109;-79
2022/08/16 04:14:42;;;;;;;13.13;10.55;;;;;;;18.63;69.00;99512.22;10419566;28;20053;-80
2022/08/16 04:19:50;;;;;;;13.88;10.35;;;;;;;18.66;69.09;99511.84;10390929;28;20041;-80
2022/08/16 04:25:00;;;;;;;11.40;8.65;;;;;;;18.68;68.99;99523.38;10391840;28;20395;-80
2022/08/16 04:30:14;;;;;;;13.80;10.93;;;;;;;18.69;68.71;99526.91;10399663;28;20045;-81
2022/08/16 04:35:38;;;;;;;11.45;10.25;;;;;;;18.60;68.86;99523.50;10410254;28;20105;-79
2022/08/16 04:40:43;;;;;;;13.25;10.00;;;;;;;18.60;68.70;99534.38;10401193;28;20072;-81
2022/08/16 04:45:52;;;;;;;10.95;8.85;;;;;;;18.62;68.84;99545.06;10388941;28;20037;-81
2022/08/16 04:51:07;;;;;;;10.88;9.55;;;;;;;18.63;68.85;99552.19;10416456;28;20037;-79
2022/08/16 04:56:24;;;;;;;12.43;10.50;;;;;;;18.64;68.83;99565.56;10408809;28;20065;-81
2022/08/16 05:01:30;;;;;;;13.32;10.48;;;;;;;18.68;68.60;99566.88;10396068;28;20099;-80
2022/08/16 05:06:54;;;;;;;15.07;11.45;;;;;;;18.67;68.76;99559.75;10397162;28;20037;-80
2022/08/16 05:12:16;;;;;;;11.93;10.73;;;;;;;18.68;68.78;99572.31;10396385;28;20057;-81
2022/08/16 05:17:35;;;;;;;8.90;7.07;;;;;;;18.88;68.24;99567.06;10403436;28;20061;-79
2022/08/16 05:22:42;;;;;;;11.45;8.77;;;;;;;19.04;67.75;99571.34;10432546;28;20030;-79
2022/08/16 05:27:50;;;;;;;11.43;8.77;;;;;;;19.24;67.29;99575.03;10431460;28;20057;-81
2022/08/16 05:32:57;;;;;;;9.30;8.45;;;;;;;19.33;66.90;99581.13;10424363;28;20429;-81
2022/08/16 05:38:02;;;;;;;14.57;8.63;;;;;;;19.45;66.49;99576.00;10403079;28;20072;-81
2022/08/16 05:43:26;;;;;;;13.15;8.10;;;;;;;19.50;65.79;99578.94;10401393;28;20053;-80
2022/08/16 05:48:35;;;;;;;10.15;7.50;;;;;;;19.59;65.84;99580.47;10388721;28;20110;-77
2022/08/16 05:53:43;;;;;;;7.53;6.60;;;;;;;19.72;64.97;99579.72;10389962;28;20087;-77
2022/08/16 05:58:50;;;;;;;7.63;6.25;;;;;;;19.89;64.11;99588.34;10395302;28;20080;-77
2022/08/16 06:03:57;;;;;;;7.53;6.65;;;;;;;20.11;62.95;99591.78;10383584;28;20118;-77
2022/08/16 06:09:08;;;;;;;8.10;5.68;;;;;;;20.29;62.79;99599.34;10388866;28;20050;-77
2022/08/16 06:14:14;;;;;;;6.82;6.22;;;;;;;20.37;61.39;99601.91;10426544;28;20409;-77
2022/08/16 06:19:23;;;;;;;7.28;6.57;;;;;;;20.52;61.77;99605.31;10376870;28;20185;-76
2022/08/16 06:24:36;;;;;;;7.68;6.38;;;;;;;20.59;60.70;99607.19;10402393;28;20153;-78
2022/08/16 06:29:59;;;;;;;9.20;6.28;;;;;;;20.79;61.01;99608.06;10371818;28;20533;-78
2022/08/16 06:35:09;;;;;;;6.22;5.60;;;;;;;20.89;60.73;99613.91;10425649;28;20041;-77
2022/08/16 06:40:14;;;;;;;7.65;6.18;;;;;;;21.07;60.62;99612.47;10407958;28;20513;-77
2022/08/16 06:45:25;;;;;;;6.78;5.63;;;;;;;21.08;59.86;99616.88;10412956;28;20149;-77
2022/08/16 06:50:41;;;;;;;8.70;5.65;;;;;;;21.27;60.15;99616.00;10411623;28;20128;-77
2022/08/16 06:55:44;;;;;;;6.60;5.93;;;;;;;21.37;59.51;99616.41;10400700;28;20037;-76
2022/08/16 07:00:49;;;;;;;7.97;6.50;;;;;;;21.54;58.54;99613.22;10417866;28;20048;-75
2022/08/16 07:05:57;;;;;;;7.22;6.32;;;;;;;21.74;57.92;99621.34;10414800;28;20132;-76
2022/08/16 07:11:06;;;;;;;8.07;6.28;;;;;;;22.21;57.04;99620.06;10419392;28;20388;-76
2022/08/16 07:16:15;;;;;;;7.60;6.20;;;;;;;22.21;56.85;99628.28;10403515;28;20466;-76
2022/08/16 07:21:24;;;;;;;7.43;5.70;;;;;;;22.65;55.82;99625.72;10399142;28;20052;-76
2022/08/16 07:26:27;;;;;;;8.00;5.85;;;;;;;23.27;54.37;99625.84;10400164;28;20041;-75
2022/08/16 07:31:33;;;;;;;7.80;6.40;;;;;;;23.76;53.00;99630.41;10386139;28;20037;-76
2022/08/16 07:36:44;;;;;;;8.25;6.40;;;;;;;23.15;53.71;99640.28;10363890;28;20125;-76
2022/08/16 07:42:00;;;;;;;10.10;7.00;;;;;;;23.27;53.69;99632.16;10377899;28;20045;-76
2022/08/16 07:47:04;;;;;;;9.32;6.53;;;;;;;23.65;53.91;99642.09;10413190;28;20069;-75
2022/08/16 07:52:10;;;;;;;9.82;6.35;;;;;;;24.12;52.13;99638.81;10393480;28;20045;-76
2022/08/16 07:57:23;;;;;;;8.88;6.63;;;;;;;24.36;51.63;99645.25;10380975;28;20129;-75
2022/08/16 08:02:30;;;;;;;10.45;6.35;;;;;;;24.51;51.03;99642.91;10398256;28;20097;-74
2022/08/16 08:07:36;;;;;;;7.85;6.88;;;;;;;24.49;50.85;99653.28;10374954;28;20073;-75
2022/08/16 08:12:48;;;;;;;11.38;6.90;;;;;;;24.57;50.54;99663.94;10405109;28;20092;-76
2022/08/16 08:17:55;;;;;;;10.38;6.90;;;;;;;24.47;51.46;99664.53;10414314;28;20107;-75
2022/08/16 08:23:12;;;;;;;8.60;6.78;;;;;;;24.89;50.51;99664.50;10433070;28;20053;-74
2022/08/16 08:28:21;;;;;;;9.50;6.75;;;;;;;25.67;48.62;99668.06;10386584;28;20051;-75
2022/08/16 08:33:33;;;;;;;11.13;7.95;;;;;;;25.55;48.64;99669.94;10425600;28;20164;-76
2022/08/16 08:38:39;;;;;;;10.02;7.45;;;;;;;24.74;49.78;99678.69;10430442;28;20037;-75
2022/08/16 08:43:50;;;;;;;10.40;7.47;;;;;;;24.54;50.20;99676.22;10411476;28;20064;-75
2022/08/16 08:48:56;;;;;;;8.18;7.38;;;;;;;25.10;49.60;99678.78;10412790;28;20103;-74
2022/08/16 08:54:08;;;;;;;10.60;8.20;;;;;;;25.30;48.85;99689.44;10408008;28;20053;-77
2022/08/16 08:59:15;;;;;;;12.48;7.53;;;;;;;25.32;48.74;99687.28;10410596;28;20636;-77
2022/08/16 09:04:24;;;;;;;10.65;7.78;;;;;;;25.18;48.86;99690.25;10421416;28;20045;-79
2022/08/16 09:09:30;;;;;;;11.63;7.97;;;;;;;25.18;48.87;99690.25;10422918;28;20046;-79
2022/08/16 09:14:38;;;;;;;8.55;7.50;;;;;;;26.22;47.47;99696.97;10422068;28;20096;-79
2022/08/16 09:19:54;;;;;;;9.20;8.10;;;;;;;26.79;45.59;99685.16;10369224;23;20145;-77
2022/08/16 09:25:02;;;;;;;12.50;8.73;;;;;;;26.72;45.13;99691.66;10340037;28;20107;-78
2022/08/16 09:30:14;;;;;;;8.82;7.57;;;;;;;26.77;45.94;99690.91;10323076;28;20074;-79
2022/08/16 09:35:37;;;;;;;13.23;8.90;;;;;;;26.89;45.19;99696.38;10333412;28;20042;-78
2022/08/16 09:40:47;;;;;;;11.15;7.95;;;;;;;27.18;45.15;99688.91;10335873;28;20039;-79
2022/08/16 09:45:50;;;;;;;12.85;8.75;;;;;;;27.88;43.75;99681.94;10343576;28;20070;-78
2022/08/16 09:50:56;;;;;;;10.20;7.80;;;;;;;27.70;43.51;99685.84;10335226;28;20057;-77
2022/08/16 09:56:01;;;;;;;9.88;8.07;;;;;;;27.57;44.42;99677.94;10336167;28;20052;-79
2022/08/16 10:01:03;;;;;;;8.63;6.85;;;;;;;28.14;43.78;99682.28;10337593;28;20403;-80
2022/08/16 10:06:06;;;;;;;9.13;7.90;;;;;;;28.68;41.57;99683.19;10335761;28;20050;-79
2022/08/16 10:16:52;;;;;;;8.40;7.38;;;;;;;27.62;42.84;99678.00;10327072;28;20077;-81
2022/08/16 10:22:04;;;;;;;6.35;5.75;;;;;;;28.43;42.02;99680.97;10344877;28;20041;-79
2022/08/16 10:27:09;;;;;;;10.30;6.60;;;;;;;29.29;39.37;99674.63;10339005;28;20050;-80
2022/08/16 10:32:31;;;;;;;8.73;5.30;;;;;;;28.85;39.60;99685.00;10350148;28;20109;-79
2022/08/16 10:37:35;;;;;;;6.20;5.00;;;;;;;29.41;37.99;99679.13;10335642;28;20078;-80
2022/08/16 10:42:39;;;;;;;9.50;4.85;;;;;;;29.20;38.83;99675.38;10318342;28;20101;-79
2022/08/16 10:47:43;;;;;;;5.97;5.40;;;;;;;29.34;38.70;99682.94;10295993;28;20077;-80
2022/08/16 10:52:46;;;;;;;6.15;5.20;;;;;;;30.48;37.17;99687.97;10322733;28;20057;-77
2022/08/16 10:57:56;;;;;;;5.38;4.88;;;;;;;30.40;36.36;99677.44;10304517;28;20535;-77
2022/08/16 11:03:00;;;;;;;7.25;4.78;;;;;;;30.14;37.33;99685.66;10288819;28;20442;-81
2022/08/16 11:08:05;;;;;;;5.38;4.40;;;;;;;30.20;36.59;99684.56;10293987;28;20054;-82
2022/08/16 11:13:12;;;;;;;6.25;4.80;;;;;;;30.83;34.89;99684.47;10284833;28;20055;-80
2022/08/16 11:18:35;;;;;;;5.72;3.85;;;;;;;32.13;33.47;99670.94;10281527;28;20109;-79
2022/08/16 11:23:58;;;;;;;3.97;3.63;;;;;;;31.60;33.15;99680.84;10277549;28;20098;-82
2022/08/16 11:29:03;;;;;;;4.65;4.13;;;;;;;31.08;33.42;99691.94;10281978;28;20039;-81
2022/08/16 11:34:16;;;;;;;3.90;3.60;;;;;;;32.68;32.76;99679.28;10287432;28;20039;-80
2022/08/16 11:39:22;;;;;;;4.10;3.70;;;;;;;34.42;31.03;99678.38;10315220;28;20049;-81
2022/08/16 11:44:27;;;;;;;5.22;3.65;;;;;;;34.39;29.56;99689.25;10305477;28;20042;-81
2022/08/16 11:49:51;;;;;;;6.90;3.83;;;;;;;34.10;30.25;99676.28;10309265;28;20123;-81
2022/08/16 11:54:54;;;;;;;7.13;4.07;;;;;;;34.56;29.92;99672.91;10313292;28;20470;-83
2022/08/16 12:00:10;;;;;;;4.30;3.90;;;;;;;32.73;30.78;99679.25;10316159;28;20409;-81
2022/08/16 12:05:34;;;;;;;11.80;4.05;;;;;;;31.28;33.39;99679.22;10312158;28;20038;-82
2022/08/16 12:10:40;;;;;;;5.15;4.50;;;;;;;31.74;32.94;99690.25;10277893;28;20460;-82
2022/08/16 12:15:46;;;;;;;7.60;4.00;;;;;;;32.36;31.78;99686.13;10303409;28;20514;-82
2022/08/16 12:20:50;;;;;;;5.07;4.05;;;;;;;32.51;31.29;99670.50;10281343;28;20576;-81
2022/08/16 12:25:57;;;;;;;4.70;3.92;;;;;;;32.57;30.76;99672.94;10272906;28;20047;-81
2022/08/16 12:31:03;;;;;;;6.03;4.47;;;;;;;31.93;32.68;99682.97;10282395;28;20078;-80
2022/08/16 12:36:15;;;;;;;4.68;3.78;;;;;;;30.68;33.65;99696.34;10290625;28;20146;-82
2022/08/16 12:41:19;;;;;;;5.82;4.20;;;;;;;31.74;31.47;99688.31;10279242;28;20046;-82
2022/08/16 12:46:29;;;;;;;5.72;3.90;;;;;;;32.87;30.75;99685.81;10279388;28;20102;-83
2022/08/16 12:51:37;;;;;;;8.48;3.90;;;;;;;34.10;29.64;99676.28;10276131;28;20070;-82
2022/08/16 12:57:01;;;;;;;5.43;4.35;;;;;;;32.10;31.42;99671.50;10275983;28;20047;-83
2022/08/16 13:02:06;;;;;;;7.22;4.20;;;;;;;31.74;32.37;99679.16;10284057;28;20043;-79
2022/08/16 13:07:14;;;;;;;6.28;4.15;;;;;;;32.48;31.46;99676.63;10277128;28;20133;-79
2022/08/16 13:12:22;;;;;;;5.82;4.00;;;;;;;32.53;30.96;99674.66;10276064;28;20047;-79
2022/08/16 13:17:28;;;;;;;6.25;4.00;;;;;;;34.13;29.29;99669.28;10293044;28;20058;-78
2022/08/16 13:22:32;;;;;;;4.38;3.97;;;;;;;33.36;29.70;99666.53;10281819;28;20039;-79
2022/08/16 13:27:35;;;;;;;5.38;3.75;;;;;;;30.55;33.55;99676.63;10284818;28;20070;-79
2022/08/16 13:33:00;;;;;;;4.10;3.55;;;;;;;32.66;31.38;99665.66;10278064;28;20429;-79
2022/08/16 13:38:04;;;;;;;4.68;3.50;;;;;;;32.86;31.13;99669.44;10284389;28;20118;-79
2022/08/16 13:43:08;;;;;;;5.22;3.70;;;;;;;31.80;30.72;99664.13;10285014;28;20075;-78
2022/08/16 13:48:14;;;;;;;5.75;3.58;;;;;;;31.75;31.88;99659.44;10280023;28;20384;-78
2022/08/16 13:53:27;;;;;;;4.20;3.67;;;;;;;33.33;30.03;99659.59;10271909;28;20051;-79
2022/08/16 13:58:30;;;;;;;5.05;4.05;;;;;;;32.83;29.78;99664.44;10271484;28;20053;-81
2022/08/16 14:03:43;;;;;;;5.30;3.70;;;;;;;34.29;29.56;99654.03;10271287;28;20544;-79
2022/08/16 14:08:47;;;;;;;5.03;3.63;;;;;;;32.95;29.90;99653.78;10279651;28;20047;-79
2022/08/16 14:14:08;;;;;;;4.20;3.70;;;;;;;31.59;31.31;99655.00;10289262;28;20061;-79
2022/08/16 14:19:17;;;;;;;4.25;3.85;;;;;;;30.83;32.47;99659.50;10279964;28;20401;-78
2022/08/16 14:24:24;;;;;;;4.82;4.35;;;;;;;32.87;30.58;99646.88;10287607;28;20039;-79
2022/08/16 14:29:35;;;;;;;4.60;4.18;;;;;;;33.72;28.76;99644.72;10298207;28;20093;-79
2022/08/16 14:34:42;;;;;;;4.32;3.92;;;;;;;34.49;27.42;99641.75;10299298;28;20419;-80
2022/08/16 14:39:45;;;;;;;7.55;4.18;;;;;;;35.02;26.72;99640.66;10292953;28;20047;-77
2022/08/16 14:44:52;;;;;;;4.32;3.95;;;;;;;35.31;26.89;99637.63;10314739;28;20038;-80
2022/08/16 14:49:58;;;;;;;3.95;3.55;;;;;;;34.84;26.92;99643.16;10291683;28;20057;-80
2022/08/16 14:55:01;;;;;;;5.22;4.00;;;;;;;32.58;28.39;99635.69;10291891;28;20044;-80
2022/08/16 15:00:08;;;;;;;6.03;3.90;;;;;;;33.92;27.18;99638.88;10280848;28;20039;-80
2022/08/16 15:05:14;;;;;;;5.45;4.07;;;;;;;34.19;28.00;99646.63;10288465;28;20055;-81
2022/08/16 15:10:18;;;;;;;4.60;3.60;;;;;;;33.29;28.89;99642.63;10292331;28;20039;-82
2022/08/16 15:15:28;;;;;;;4.85;3.85;;;;;;;33.83;28.37;99643.47;10285989;28;20047;-81
2022/08/16 15:20:34;;;;;;;3.70;3.30;;;;;;;35.10;27.08;99644.72;10295430;28;20090;-82
2022/08/16 15:25:40;;;;;;;7.72;3.50;;;;;;;35.18;25.75;99639.25;10432479;23;20046;-79
2022/08/16 15:30:45;;;;;;;4.30;3.47;;;;;;;34.14;26.22;99638.34;10393730;28;20379;-79
2022/08/16 15:36:05;;;;;;;5.28;3.60;;;;;;;32.96;27.72;99635.13;10408695;28;20038;-81
2022/08/16 15:41:09;;;;;;;6.50;3.53;;;;;;;33.18;28.06;99629.94;10422345;28;20052;-79
2022/08/16 15:46:24;;;;;;;6.13;3.88;;;;;;;34.45;28.00;99628.69;10405976;28;20050;-82
2022/08/16 15:51:48;;;;;;;5.45;3.63;;;;;;;35.08;25.76;99633.88;10412575;28;20038;-81
2022/08/16 15:56:55;;;;;;;3.72;3.40;;;;;;;35.52;26.74;99632.53;10403460;28;20120;-76
2022/08/16 16:02:02;;;;;;;5.78;3.47;;;;;;;35.00;26.77;99628.97;10390436;28;20045;-77
2022/08/16 16:07:06;;;;;;;5.63;3.80;;;;;;;34.77;26.82;99639.09;10406228;28;20050;-79
2022/08/16 16:12:12;;;;;;;4.15;3.80;;;;;;;33.27;27.86;99641.28;10398683;28;20101;-79
2022/08/16 16:17:34;;;;;;;4.40;4.00;;;;;;;32.79;28.31;99641.94;10392838;28;20057;-79
2022/08/16 16:22:40;;;;;;;4.78;4.38;;;;;;;31.38;29.54;99645.91;10400031;28;20042;-79
2022/08/16 16:27:48;;;;;;;4.93;4.28;;;;;;;30.14;31.25;99646.91;10393726;28;20107;-79
2022/08/16 16:32:58;;;;;;;5.78;5.22;;;;;;;29.81;32.17;99650.88;10379028;28;20041;-79
2022/08/16 16:38:04;;;;;;;7.15;4.38;;;;;;;30.11;32.41;99644.63;10415412;28;20041;-79
2022/08/16 16:43:11;;;;;;;5.47;4.57;;;;;;;29.78;32.99;99646.69;10397222;28;20052;-79
2022/08/16 16:48:17;;;;;;;7.15;4.28;;;;;;;29.40;34.43;99650.59;10396411;28;20050;-78
2022/08/16 16:53:21;;;;;;;6.20;4.03;;;;;;;29.85;34.39;99657.53;10427561;28;20267;-79
2022/08/16 17:03:55;;;;;;;5.15;4.55;;;;;;;29.96;34.52;99663.97;10425673;28;20041;-77
2022/08/16 17:08:59;;;;;;;5.80;4.57;;;;;;;29.93;35.69;99665.34;10424247;28;20022;-76
2022/08/16 17:14:04;;;;;;;7.00;4.03;;;;;;;29.86;35.16;99661.13;10406030;28;20572;-76
2022/08/16 17:19:07;;;;;;;4.45;4.07;;;;;;;29.65;36.13;99651.88;10396402;28;20060;-77
2022/08/16 17:24:22;;;;;;;6.90;4.90;;;;;;;29.50;36.02;99666.44;10403292;28;20479;-77
2022/08/16 17:29:42;;;;;;;6.68;5.10;;;;;;;30.31;35.14;99665.22;10400453;28;20046;-77
2022/08/16 17:34:49;;;;;;;5.15;4.65;;;;;;;31.88;32.23;99666.31;10412209;28;20490;-77
2022/08/16 17:39:54;;;;;;;5.30;4.80;;;;;;;32.01;31.80;99662.13;10387308;28;20050;-77
2022/08/16 17:45:08;;;;;;;6.97;4.43;;;;;;;31.20;33.21;99672.28;10392641;28;20057;-77
2022/08/16 17:50:12;;;;;;;5.57;4.60;;;;;;;30.33;34.70;99672.13;10388088;28;20049;-77
2022/08/16 17:55:23;;;;;;;7.78;5.13;;;;;;;29.78;36.22;99681.84;10371055;28;20141;-77
2022/08/16 18:00:28;;;;;;;5.68;5.18;;;;;;;29.21;37.77;99683.41;10380768;28;20491;-77
2022/08/16 18:05:32;;;;;;;5.75;5.25;;;;;;;28.74;38.85;99688.75;10405453;28;20095;-76
2022/08/16 18:10:36;;;;;;;6.70;5.10;;;;;;;28.41;39.57;99693.34;10398884;28;20046;-76
2022/08/16 18:15:39;;;;;;;5.72;5.13;;;;;;;28.09;40.80;99694.09;10410876;28;20116;-77
2022/08/16 18:26:06;;;;;;;6.85;5.20;;;;;;;27.61;42.06;99703.91;10394240;28;20049;-77
2022/08/16 18:31:09;;;;;;;8.60;5.30;;;;;;;27.38;42.66;99703.00;10404166;28;20044;-77
2022/08/16 18:36:12;;;;;;;5.75;5.18;;;;;;;27.11;42.23;99705.59;10392622;28;20068;-76
2022/08/16 18:41:26;;;;;;;6.10;5.40;;;;;;;26.88;42.03;99719.53;10403872;28;20038;-75
2022/08/16 18:46:29;;;;;;;6.07;5.47;;;;;;;26.67;42.30;99719.09;10406583;28;20095;-77
2022/08/16 18:51:32;;;;;;;8.98;5.60;;;;;;;26.52;42.37;99718.81;10397624;28;20495;-75
2022/08/16 18:56:37;;;;;;;7.95;5.40;;;;;;;26.32;43.30;99730.25;10378346;28;20108;-76
2022/08/16 19:02:00;;;;;;;6.90;5.90;;;;;;;26.13;42.53;99735.06;10392145;28;20099;-75
2022/08/16 19:07:07;;;;;;;5.97;5.47;;;;;;;26.09;42.66;99744.88;10401451;28;20045;-75
2022/08/16 19:12:11;;;;;;;6.05;5.18;;;;;;;25.96;42.48;99745.16;10405020;28;20091;-75
2022/08/16 19:17:17;;;;;;;6.00;5.40;;;;;;;25.90;42.70;99749.69;10391364;28;20049;-75
2022/08/16 19:22:25;;;;;;;9.90;5.97;;;;;;;25.88;42.81;99757.34;10387339;28;20112;-75
2022/08/16 19:27:50;;;;;;;6.60;5.80;;;;;;;25.81;43.46;99760.25;10370032;28;20049;-75
2022/08/16 19:32:53;;;;;;;10.43;6.13;;;;;;;25.73;43.76;99774.34;10367117;28;20140;-75
2022/08/16 19:37:56;;;;;;;7.57;5.72;;;;;;;25.65;43.00;99771.97;10363555;28;20049;-77
2022/08/16 19:43:01;;;;;;;7.85;6.22;;;;;;;25.68;43.47;99782.47;10394115;28;20438;-76
2022/08/16 19:48:08;;;;;;;11.38;6.28;;;;;;;25.69;43.04;99788.81;10395975;28;20041;-76
2022/08/16 19:53:13;;;;;;;6.20;5.22;;;;;;;25.72;43.60;99791.06;10386033;28;20041;-76
2022/08/16 19:58:22;;;;;;;6.70;6.10;;;;;;;25.71;43.27;99792.16;10403172;28;20424;-78
2022/08/16 20:03:24;;;;;;;11.60;6.78;;;;;;;25.66;43.57;99795.63;10405836;28;20072;-76
2022/08/16 20:08:27;;;;;;;8.55;6.65;;;;;;;25.56;44.26;99795.34;10412790;28;20042;-76
2022/08/16 20:13:32;;;;;;;10.18;5.70;;;;;;;25.34;44.22;99795.06;10416837;28;20050;-76
2022/08/16 20:18:35;;;;;;;5.80;5.25;;;;;;;25.16;43.81;99798.75;10402870;28;20037;-76
2022/08/16 20:23:38;;;;;;;7.90;5.13;;;;;;;24.85;44.22;99803.38;10412010;28;20063;-77
2022/08/16 20:28:43;;;;;;;5.35;4.88;;;;;;;24.74;44.63;99809.66;10402220;28;20048;-78
2022/08/16 20:33:56;;;;;;;6.00;4.90;;;;;;;24.69;44.61;99804.84;10410459;28;20037;-77
2022/08/16 20:39:02;;;;;;;6.70;5.68;;;;;;;24.73;44.81;99807.97;10404196;28;20063;-77
2022/08/16 20:44:06;;;;;;;5.88;5.22;;;;;;;24.70;45.48;99814.75;10408563;28;20045;-78
2022/08/16 20:49:11;;;;;;;7.95;5.82;;;;;;;24.53;46.22;99828.28;10406127;28;20414;-78
2022/08/16 20:54:14;;;;;;;6.25;5.50;;;;;;;24.22;46.72;99828.41;10413167;28;20103;-76
2022/08/16 20:59:19;;;;;;;10.00;6.40;;;;;;;24.09;47.47;99823.91;10407044;28;20050;-76
2022/08/16 21:04:25;;;;;;;8.05;6.93;;;;;;;24.07;47.39;99824.13;10401435;28;20045;-76
2022/08/16 21:09:32;;;;;;;11.00;6.85;;;;;;;24.04;47.60;99841.03;10408748;28;20033;-76
2022/08/16 21:14:37;;;;;;;13.07;6.78;;;;;;;23.92;48.08;99842.84;10399411;28;20048;-76
2022/08/16 21:19:40;;;;;;;13.32;6.93;;;;;;;23.74;47.42;99837.28;10407440;28;20061;-77
2022/08/16 21:24:44;;;;;;;9.60;6.30;;;;;;;23.66;48.29;99846.63;10386758;28;20065;-76
2022/08/16 21:29:50;;;;;;;6.90;6.03;;;;;;;23.50;48.73;99850.75;10390445;28;20044;-76
2022/08/16 21:34:54;;;;;;;10.73;6.40;;;;;;;23.41;48.47;99849.34;10401962;28;20045;-76
2022/08/16 21:39:56;;;;;;;12.38;6.70;;;;;;;23.27;48.80;99859.56;10413103;28;20045;-76
2022/08/16 21:45:01;;;;;;;12.15;7.40;;;;;;;23.29;49.14;99856.63;10401970;28;20080;-76
2022/08/16 21:50:04;;;;;;;11.25;7.05;;;;;;;23.29;48.97;99856.63;10395741;28;20065;-76
2022/08/16 21:55:08;;;;;;;7.57;6.78;;;;;;;23.17;49.83;99856.44;10411140;28;20103;-76
2022/08/16 22:00:14;;;;;;;9.32;6.80;;;;;;;23.18;50.27;99866.38;10410176;28;20046;-76
2022/08/16 22:05:16;;;;;;;11.18;6.72;;;;;;;23.10;50.35;99872.91;10391553;28;20046;-76
2022/08/16 22:10:20;;;;;;;10.80;6.50;;;;;;;23.16;50.47;99868.47;10384593;28;20510;-76
2022/08/16 22:15:46;;;;;;;7.85;6.93;;;;;;;23.16;51.03;99872.06;10392032;28;20046;-75
2022/08/16 22:20:49;;;;;;;10.15;7.13;;;;;;;23.11;51.63;99869.13;10408153;28;20042;-76
2022/08/16 22:25:54;;;;;;;9.63;7.55;;;;;;;22.95;52.22;99866.88;10395932;28;20045;-76
2022/08/16 22:30:59;;;;;;;9.43;7.75;;;;;;;22.95;52.07;99873.19;10381701;28;20069;-76
2022/08/16 22:36:04;;;;;;;8.88;7.97;;;;;;;22.92;51.96;99872.78;10394479;28;20068;-76
2022/08/16 22:41:07;;;;;;;8.38;7.57;;;;;;;22.91;51.97;99876.59;10410948;28;20038;-76
2022/08/16 22:46:11;;;;;;;9.82;8.43;;;;;;;22.81;52.12;99877.03;10400841;28;20407;-76
2022/08/16 22:51:14;;;;;;;9.40;7.85;;;;;;;22.64;52.70;99881.34;10383292;28;20053;-76
2022/08/16 22:56:17;;;;;;;9.52;8.27;;;;;;;22.53;53.10;99875.47;10382922;28;20049;-76
2022/08/16 23:01:23;;;;;;;12.90;8.27;;;;;;;22.52;52.98;99873.78;10404946;28;20050;-76
2022/08/16 23:06:26;;;;;;;11.52;8.15;;;;;;;22.15;53.70;99867.09;10408995;28;20069;-76
2022/08/16 23:11:29;;;;;;;10.15;7.70;;;;;;;21.69;55.51;99867.94;10411742;28;20048;-75
2022/08/16 23:16:33;;;;;;;11.88;8.15;;;;;;;21.58;55.85;99874.03;10408276;28;20045;-76
2022/08/16 23:21:39;;;;;;;10.32;7.65;;;;;;;21.58;56.14;99869.41;10397073;28;20049;-76
2022/08/16 23:26:43;;;;;;;9.15;8.25;;;;;;;21.46;56.62;99865.63;10407636;28;20053;-76
2022/08/16 23:31:53;;;;;;;11.27;7.95;;;;;;;21.47;57.08;99863.72;10393515;28;20387;-76
2022/08/16 23:36:56;;;;;;;17.10;10.05;;;;;;;21.40;57.58;99869.19;10393542;28;20053;-76
2022/08/16 23:41:59;;;;;;;15.90;11.05;;;;;;;21.38;57.64;99863.09;10397067;28;20108;-76
2022/08/16 23:47:04;;;;;;;14.38;10.75;;;;;;;21.00;58.75;99869.03;10378565;28;20105;-76
2022/08/16 23:52:08;;;;;;;14.18;10.15;;;;;;;20.75;59.38;99855.09;10387715;28;20042;-76
2022/08/16 23:57:11;;;;;;;12.75;10.48;;;;;;;20.86;58.95;99854.50;10404743;28;20572;-76
